createdAt,value
2023-03-06T00:02:09.665Z,100714.59
2023-03-06T00:07:11.727Z,100707.63
2023-03-06T00:12:13.476Z,100709.31
2023-03-06T00:17:15.042Z,100711.94
2023-03-06T00:22:16.912Z,100709.31
2023-03-06T00:27:18.434Z,100694.59
2023-03-06T00:32:20.030Z,100689.38
2023-03-06T00:37:23.232Z,100685.66
2023-03-06T00:42:24.962Z,100678.88
2023-03-06T00:47:26.979Z,100682.22
2023-03-06T00:52:29.774Z,100675.78
2023-03-06T00:57:31.410Z,100665.13
2023-03-06T01:02:33.053Z,100659.28
2023-03-06T01:07:36.672Z,100664.38
2023-03-06T01:12:38.250Z,100655.41
2023-03-06T01:17:40.160Z,100640.00
2023-03-06T01:22:42.015Z,100624.16
2023-03-06T01:27:43.640Z,100599.66
2023-03-06T01:32:45.631Z,100573.06
2023-03-06T01:37:47.485Z,100550.41
2023-03-06T01:42:50.571Z,100539.59
2023-03-06T01:47:52.374Z,100540.22
2023-03-06T01:52:57.839Z,100525.09
2023-03-06T01:58:03.465Z,100513.09
2023-03-06T02:03:12.967Z,100491.00
2023-03-06T02:08:18.438Z,100497.28
2023-03-06T02:13:20.011Z,100479.94
2023-03-06T02:18:27.562Z,100478.63
2023-03-06T02:23:51.088Z,100485.94
2023-03-06T02:28:52.704Z,100489.09
2023-03-06T02:34:23.516Z,100486.53
2023-03-06T02:39:28.212Z,100478.41
2023-03-06T02:44:31.745Z,100454.63
2023-03-06T02:49:33.601Z,100453.41
2023-03-06T02:54:35.157Z,100451.38
2023-03-06T02:59:36.978Z,100435.97
2023-03-06T03:04:40.411Z,100404.53
2023-03-06T03:09:42.256Z,100391.88
2023-03-06T03:14:45.076Z,100388.81
2023-03-06T03:19:48.073Z,100377.50
2023-03-06T03:24:49.883Z,100364.00
2023-03-06T03:29:51.648Z,100350.44
2023-03-06T03:34:55.629Z,100343.06
2023-03-06T03:39:59.403Z,100325.66
2023-03-06T03:45:01.895Z,100315.34
2023-03-06T03:50:04.797Z,100309.38
2023-03-06T03:55:07.059Z,100290.25
2023-03-06T04:00:11.976Z,100280.22
2023-03-06T04:05:24.754Z,100279.91
2023-03-06T04:10:26.433Z,100277.81
2023-03-06T04:15:29.392Z,100267.44
2023-03-06T04:20:31.440Z,100266.13
2023-03-06T04:25:34.951Z,100244.72
2023-03-06T04:30:39.517Z,100241.69
2023-03-06T04:35:41.462Z,100242.97
2023-03-06T04:40:49.902Z,100235.81
2023-03-06T04:45:51.764Z,100240.88
2023-03-06T04:50:53.469Z,100228.38
2023-03-06T04:55:55.082Z,100233.38
2023-03-06T05:00:56.755Z,100227.00
2023-03-06T05:05:58.395Z,100233.03
2023-03-06T05:11:01.781Z,100224.00
2023-03-06T05:16:05.153Z,100222.63
2023-03-06T05:21:10.246Z,100219.06
2023-03-06T05:26:14.238Z,100218.28
2023-03-06T05:31:16.481Z,100208.53
2023-03-06T05:36:18.101Z,100218.84
2023-03-06T05:41:19.629Z,100206.94
2023-03-06T05:46:21.291Z,100193.69
2023-03-06T05:51:23.467Z,100198.34
2023-03-06T05:56:25.002Z,100195.06
2023-03-06T06:01:28.407Z,100193.16
2023-03-06T06:06:29.982Z,100194.09
2023-03-06T06:11:31.827Z,100187.78
2023-03-06T06:16:33.384Z,100181.50
2023-03-06T06:21:35.162Z,100169.28
2023-03-06T06:26:36.733Z,100156.75
2023-03-06T06:31:39.411Z,100154.06
2023-03-06T06:36:41.946Z,100133.72
2023-03-06T06:41:59.408Z,100133.88
2023-03-06T06:47:24.528Z,100122.81
2023-03-06T06:52:26.803Z,100126.44
2023-03-06T06:57:28.412Z,100126.38
2023-03-06T07:02:30.217Z,100138.41
2023-03-06T07:07:34.467Z,100155.97
2023-03-06T07:12:37.058Z,100148.69
2023-03-06T07:17:41.015Z,100158.53
2023-03-06T07:22:50.907Z,100157.97
2023-03-06T07:27:54.735Z,100176.94
2023-03-06T07:32:57.908Z,100171.84
2023-03-06T07:38:01.840Z,100175.47
2023-03-06T07:43:18.299Z,100180.34
2023-03-06T07:48:24.919Z,100183.03
2023-03-06T07:53:27.364Z,100190.34
2023-03-06T07:58:29.198Z,100200.97
2023-03-06T08:03:30.864Z,100215.41
2023-03-06T08:08:34.841Z,100226.63
2023-03-06T08:13:36.765Z,100223.59
2023-03-06T08:18:39.935Z,100238.66
2023-03-06T08:23:43.675Z,100239.09
2023-03-06T08:28:46.517Z,100254.06
2023-03-06T08:33:48.116Z,100304.16
2023-03-06T08:38:49.798Z,100317.72
2023-03-06T08:43:51.874Z,100317.31
2023-03-06T08:48:53.880Z,100328.56
2023-03-06T08:53:57.148Z,100332.31
2023-03-06T08:59:00.527Z,100333.78
2023-03-06T09:04:05.587Z,100353.22
2023-03-06T09:09:07.379Z,100364.97
2023-03-06T09:14:08.927Z,100366.13
2023-03-06T09:19:10.675Z,100371.88
2023-03-06T09:24:12.258Z,100387.63
2023-03-06T09:29:16.486Z,100376.09
2023-03-06T09:34:18.157Z,100390.63
2023-03-06T09:39:19.795Z,100393.72
2023-03-06T09:44:26.022Z,100387.09
2023-03-06T09:49:51.971Z,100401.19
2023-03-06T09:55:01.066Z,100420.94
2023-03-06T10:00:11.857Z,100426.03
2023-03-06T10:05:19.814Z,100435.09
2023-03-06T10:10:27.949Z,100412.38
2023-03-06T10:15:36.101Z,100444.81
2023-03-06T10:21:17.033Z,100468.59
2023-03-06T10:26:39.882Z,100487.50
2023-03-06T10:31:49.266Z,100500.28
2023-03-06T10:36:51.242Z,100505.09
2023-03-06T10:41:52.773Z,100522.69
2023-03-06T10:46:54.649Z,100543.44
2023-03-06T10:52:02.308Z,100525.88
2023-03-06T10:57:25.857Z,100530.09
2023-03-06T11:02:36.721Z,100549.16
2023-03-06T11:07:53.986Z,100551.47
2023-03-06T11:13:21.174Z,100560.97
2023-03-06T11:18:34.848Z,100560.53
2023-03-06T11:23:42.104Z,100570.00
2023-03-06T11:29:27.238Z,100562.22
2023-03-06T11:34:40.221Z,100569.50
2023-03-06T11:39:53.560Z,100555.16
2023-03-06T11:45:34.839Z,100548.41
2023-03-06T11:50:52.594Z,100539.03
2023-03-06T11:56:03.527Z,100551.06
2023-03-06T12:01:17.404Z,100540.16
2023-03-06T12:06:37.776Z,100528.44
2023-03-06T12:12:00.799Z,100522.00
2023-03-06T12:17:18.416Z,100527.53
2023-03-06T12:22:40.947Z,100504.66
2023-03-06T12:27:51.775Z,100509.41
2023-03-06T12:33:12.356Z,100493.41
2023-03-06T12:38:51.834Z,100488.47
2023-03-06T12:44:06.851Z,100495.59
2023-03-06T12:49:31.804Z,100490.16
2023-03-06T12:54:38.998Z,100482.06
2023-03-06T12:59:48.079Z,100480.56
2023-03-06T13:05:14.196Z,100467.25
2023-03-06T13:10:25.618Z,100471.47
2023-03-06T13:15:45.538Z,100463.56
2023-03-06T13:20:50.748Z,100452.94
2023-03-06T13:25:52.358Z,100436.78
2023-03-06T13:30:54.056Z,100437.81
2023-03-06T13:35:57.455Z,100422.69
2023-03-06T13:41:20.924Z,100428.94
2023-03-06T13:46:27.095Z,100420.72
2023-03-06T13:51:34.929Z,100415.44
2023-03-06T13:57:10.116Z,100411.91
2023-03-06T14:02:40.009Z,100414.75
2023-03-06T14:07:46.717Z,100408.22
2023-03-06T14:12:51.298Z,100396.88
2023-03-06T14:18:00.254Z,100395.78
2023-03-06T14:23:16.636Z,100390.63
2023-03-06T14:28:27.121Z,100379.34
2023-03-06T14:33:52.950Z,100364.38
2023-03-06T14:38:59.061Z,100368.75
2023-03-06T14:44:19.428Z,100355.19
2023-03-06T14:49:22.167Z,100359.63
2023-03-06T14:54:32.348Z,100345.53
2023-03-06T14:59:39.838Z,100342.28
2023-03-06T15:04:47.077Z,100343.69
2023-03-06T15:09:51.700Z,100344.59
2023-03-06T15:15:09.689Z,100326.88
2023-03-06T15:20:48.854Z,100330.34
2023-03-06T15:26:33.920Z,100319.63
2023-03-06T15:31:44.740Z,100316.03
2023-03-06T15:36:57.453Z,100306.63
2023-03-06T15:42:23.775Z,100302.41
2023-03-06T15:47:25.691Z,100299.38
2023-03-06T15:52:27.376Z,100290.34
2023-03-06T15:57:31.799Z,100319.78
2023-03-06T16:02:33.973Z,100276.19
2023-03-06T16:07:35.541Z,100254.19
2023-03-06T16:12:37.287Z,100207.88
2023-03-06T16:17:38.790Z,100172.38
2023-03-06T16:22:40.635Z,100181.63
2023-03-06T16:27:59.039Z,100153.28
2023-03-06T16:33:01.781Z,100151.41
2023-03-06T16:38:03.634Z,100152.78
2023-03-06T16:43:05.495Z,100161.38
2023-03-06T16:48:08.092Z,100162.63
2023-03-06T16:53:09.988Z,100158.34
2023-03-06T16:58:11.724Z,100137.03
2023-03-06T17:03:17.900Z,100128.88
2023-03-06T17:08:19.482Z,100123.59
2023-03-06T17:13:21.232Z,100114.56
2023-03-06T17:18:24.443Z,100118.34
2023-03-06T17:23:28.857Z,100100.59
2023-03-06T17:28:30.704Z,100098.22
2023-03-06T17:33:32.295Z,100107.41
2023-03-06T17:38:34.000Z,100117.66
2023-03-06T17:43:37.262Z,100130.22
2023-03-06T17:48:39.915Z,100126.06
2023-03-06T17:53:41.738Z,100119.63
2023-03-06T17:58:43.289Z,100100.81
2023-03-06T18:03:46.775Z,100089.63
2023-03-06T18:08:52.297Z,100075.59
2023-03-06T18:13:54.537Z,100050.22
2023-03-06T18:18:56.871Z,100038.94
2023-03-06T18:23:58.498Z,100028.75
2023-03-06T18:29:03.748Z,99980.94
2023-03-06T18:34:14.965Z,99951.25
2023-03-06T18:39:16.591Z,99900.25
2023-03-06T18:44:18.984Z,99880.44
2023-03-06T18:49:20.661Z,99860.47
2023-03-06T18:54:22.232Z,99825.75
2023-03-06T18:59:23.851Z,99817.66
2023-03-06T19:04:26.019Z,99797.63
2023-03-06T19:09:27.635Z,99794.03
2023-03-06T19:14:29.252Z,99787.41
2023-03-06T19:19:30.892Z,99790.66
2023-03-06T19:24:32.508Z,99798.94
2023-03-06T19:29:34.216Z,99798.16
2023-03-06T19:34:35.892Z,99804.69
2023-03-06T19:39:37.755Z,99807.59
2023-03-06T19:44:39.253Z,99806.31
2023-03-06T19:49:40.856Z,99809.91
2023-03-06T19:54:42.646Z,99806.22
2023-03-06T19:59:44.310Z,99804.50
2023-03-06T20:04:46.934Z,99798.00
2023-03-06T20:09:48.605Z,99786.81
2023-03-06T20:14:50.242Z,99786.91
2023-03-06T20:19:51.815Z,99763.81
2023-03-06T20:24:53.760Z,99757.31
2023-03-06T20:29:55.320Z,99766.00
2023-03-06T20:34:57.981Z,99752.97
2023-03-06T20:39:59.726Z,99758.84
2023-03-06T20:45:01.281Z,99744.56
2023-03-06T20:50:03.454Z,99733.97
2023-03-06T20:55:05.504Z,99732.94
2023-03-06T21:00:08.807Z,99723.28
2023-03-06T21:05:10.939Z,99708.06
2023-03-06T21:10:14.517Z,99695.41
2023-03-06T21:15:18.618Z,99666.50
2023-03-06T21:20:20.288Z,99651.66
2023-03-06T21:25:22.291Z,99631.06
2023-03-06T21:30:23.855Z,99609.53
2023-03-06T21:35:25.488Z,99585.75
2023-03-06T21:40:27.260Z,99572.38
2023-03-06T21:45:30.353Z,99565.94
2023-03-06T21:50:31.892Z,99544.34
2023-03-06T21:55:33.439Z,99525.75
2023-03-06T22:00:38.530Z,99513.84
2023-03-06T22:05:40.170Z,99498.22
2023-03-06T22:10:41.968Z,99486.53
2023-03-06T22:15:51.422Z,99459.31
2023-03-06T22:20:53.068Z,99445.03
2023-03-06T22:25:54.681Z,99418.16
2023-03-06T22:30:56.303Z,99410.72
2023-03-06T22:36:07.660Z,99382.66
2023-03-06T22:41:10.616Z,99370.63
2023-03-06T22:46:14.872Z,99353.59
2023-03-06T22:51:19.186Z,99324.94
2023-03-06T22:56:21.979Z,99295.81
2023-03-06T23:01:34.342Z,99281.50
2023-03-06T23:06:37.989Z,99289.44
2023-03-06T23:11:39.530Z,99278.44
2023-03-06T23:17:00.113Z,99287.16
2023-03-06T23:22:20.243Z,99273.84
2023-03-06T23:27:41.109Z,99268.09
2023-03-06T23:32:46.080Z,99265.50
2023-03-06T23:37:47.994Z,99268.06
2023-03-06T23:42:50.123Z,99264.31
2023-03-06T23:47:51.765Z,99252.22
2023-03-06T23:52:54.164Z,99248.91
2023-03-06T23:57:55.807Z,99249.72
